Time;durP1;ratioP1;P1;durP2;ratioP2;P2;SDS_P1;SDS_P2;PMS_P1;PMS_P2;Temp;Humidity;BMP_temperature;BMP_pressure;BME280_temperature;BME280_humidity;BME280_pressure;Samples;Min_cycle;Max_cycle;Signal;HPM_P1;HPM_P2
2023/03/15 00:02:28;;;;;;;0.80;0.80;;;;;;;;;;4992810;28;20261;-86
2023/03/15 00:04:56;;;;;;;0.80;0.80;;;;;;;;;;4992604;28;20209;-85
2023/03/15 00:07:25;;;;;;;0.80;0.80;;;;;;;;;;4992302;28;20192;-86
2023/03/15 00:09:53;;;;;;;0.80;0.80;;;;;;;;;;4992067;28;20235;-87
2023/03/15 00:12:22;;;;;;;0.80;0.80;;;;;;;;;;4992460;28;20292;-87
2023/03/15 00:14:51;;;;;;;0.80;0.80;;;;;;;;;;4992475;28;20259;-87
2023/03/15 00:17:21;;;;;;;0.80;0.80;;;;;;;;;;4992862;28;20207;-87
2023/03/15 00:19:51;;;;;;;0.70;0.70;;;;;;;;;;4992650;28;20230;-87
2023/03/15 00:22:22;;;;;;;0.70;0.70;;;;;;;;;;4992523;28;20238;-86
2023/03/15 00:24:50;;;;;;;0.80;0.80;;;;;;;;;;4992737;28;20288;-86
2023/03/15 00:27:19;;;;;;;0.80;0.80;;;;;;;;;;4992500;28;20213;-87
2023/03/15 00:29:47;;;;;;;0.80;0.80;;;;;;;;;;4992578;28;20270;-88
2023/03/15 00:32:15;;;;;;;0.80;0.80;;;;;;;;;;4992449;28;20257;-87
2023/03/15 00:34:47;;;;;;;0.80;0.80;;;;;;;;;;4992413;28;20220;-88
2023/03/15 00:37:20;;;;;;;0.80;0.80;;;;;;;;;;4992863;28;20210;-86
2023/03/15 00:39:49;;;;;;;0.80;0.80;;;;;;;;;;4992908;28;20239;-85
2023/03/15 00:42:17;;;;;;;0.80;0.80;;;;;;;;;;4992355;28;20230;-86
2023/03/15 00:44:46;;;;;;;0.80;0.80;;;;;;;;;;4992263;28;20253;-86
2023/03/15 00:47:15;;;;;;;0.70;0.70;;;;;;;;;;4992260;28;20509;-86
2023/03/15 00:49:44;;;;;;;0.70;0.70;;;;;;;;;;4992390;28;20227;-86
2023/03/15 00:52:12;;;;;;;0.73;0.73;;;;;;;;;;4992265;28;20210;-85
2023/03/15 00:54:43;;;;;;;0.80;0.80;;;;;;;;;;4992296;28;20277;-87
2023/03/15 00:57:11;;;;;;;0.80;0.80;;;;;;;;;;4992156;28;20204;-87
2023/03/15 00:59:40;;;;;;;0.80;0.80;;;;;;;;;;4992225;28;20200;-86
2023/03/15 01:02:08;;;;;;;0.80;0.80;;;;;;;;;;4992291;28;20199;-86
2023/03/15 01:04:37;;;;;;;0.80;0.80;;;;;;;;;;4992057;28;20203;-86
2023/03/15 01:07:06;;;;;;;0.80;0.80;;;;;;;;;;4992050;28;20230;-86
2023/03/15 01:09:34;;;;;;;0.80;0.80;;;;;;;;;;4991681;28;20231;-86
2023/03/15 01:12:04;;;;;;;0.80;0.80;;;;;;;;;;4992108;28;20239;-86
2023/03/15 01:14:34;;;;;;;0.80;0.80;;;;;;;;;;4992049;28;20263;-85
2023/03/15 01:17:02;;;;;;;0.80;0.80;;;;;;;;;;4991916;28;20200;-86
2023/03/15 01:19:30;;;;;;;0.80;0.80;;;;;;;;;;4992997;28;20211;-85
2023/03/15 01:21:59;;;;;;;0.80;0.80;;;;;;;;;;4995688;28;20262;-86
2023/03/15 01:24:27;;;;;;;0.80;0.80;;;;;;;;;;4995693;28;20251;-86
2023/03/15 01:26:56;;;;;;;0.80;0.80;;;;;;;;;;4995596;28;20197;-86
2023/03/15 01:29:26;;;;;;;0.80;0.80;;;;;;;;;;4995813;28;20297;-87
2023/03/15 01:31:54;;;;;;;0.80;0.80;;;;;;;;;;4995540;28;20214;-86
2023/03/15 01:34:23;;;;;;;0.80;0.80;;;;;;;;;;4995412;28;20204;-86
2023/03/15 01:36:52;;;;;;;0.80;0.80;;;;;;;;;;4995694;28;20206;-82
2023/03/15 01:39:21;;;;;;;0.80;0.80;;;;;;;;;;4995765;28;20442;-82
2023/03/15 01:41:49;;;;;;;0.80;0.80;;;;;;;;;;4995448;28;20207;-82
2023/03/15 01:44:18;;;;;;;0.80;0.80;;;;;;;;;;4995318;28;20194;-82
2023/03/15 01:46:48;;;;;;;0.80;0.80;;;;;;;;;;4995069;28;20209;-82
2023/03/15 01:49:18;;;;;;;0.80;0.80;;;;;;;;;;4995571;28;20256;-82
2023/03/15 01:51:47;;;;;;;0.80;0.80;;;;;;;;;;4995533;28;20299;-82
2023/03/15 01:54:18;;;;;;;0.80;0.80;;;;;;;;;;4995160;28;20278;-82
2023/03/15 01:56:48;;;;;;;0.83;0.83;;;;;;;;;;4995336;28;20295;-82
2023/03/15 01:59:17;;;;;;;0.80;0.80;;;;;;;;;;4994965;28;20213;-82
2023/03/15 02:01:47;;;;;;;0.80;0.80;;;;;;;;;;4994972;28;20254;-82
2023/03/15 02:04:17;;;;;;;0.80;0.80;;;;;;;;;;4995307;28;20226;-83
2023/03/15 02:06:47;;;;;;;0.70;0.70;;;;;;;;;;4994893;28;20281;-82
2023/03/15 02:09:18;;;;;;;0.80;0.80;;;;;;;;;;4995080;28;20337;-82
2023/03/15 02:11:47;;;;;;;0.80;0.80;;;;;;;;;;4995068;28;20238;-82
2023/03/15 02:14:16;;;;;;;0.80;0.80;;;;;;;;;;4994969;28;20301;-82
2023/03/15 02:16:44;;;;;;;0.90;0.90;;;;;;;;;;4994645;28;20459;-82
2023/03/15 02:19:21;;;;;;;0.80;0.80;;;;;;;;;;4994787;28;20203;-82
2023/03/15 02:21:55;;;;;;;0.80;0.80;;;;;;;;;;4994623;28;20206;-82
2023/03/15 02:24:29;;;;;;;0.77;0.77;;;;;;;;;;4994913;28;20207;-82
2023/03/15 02:26:58;;;;;;;0.90;0.90;;;;;;;;;;4994609;28;20199;-82
2023/03/15 02:29:29;;;;;;;0.80;0.80;;;;;;;;;;4994325;28;20211;-82
2023/03/15 02:31:58;;;;;;;0.80;0.80;;;;;;;;;;4994411;28;20234;-82
2023/03/15 02:34:27;;;;;;;0.80;0.80;;;;;;;;;;4994587;28;20211;-82
2023/03/15 02:36:55;;;;;;;0.80;0.80;;;;;;;;;;4994181;28;20209;-82
2023/03/15 02:39:24;;;;;;;0.80;0.80;;;;;;;;;;4994518;28;20196;-83
2023/03/15 02:41:53;;;;;;;0.77;0.77;;;;;;;;;;4993973;28;20263;-82
2023/03/15 02:44:23;;;;;;;0.80;0.80;;;;;;;;;;4994279;28;20258;-82
2023/03/15 02:46:54;;;;;;;0.80;0.80;;;;;;;;;;4994460;28;20278;-83
2023/03/15 02:49:24;;;;;;;0.80;0.80;;;;;;;;;;4994126;28;20237;-82
2023/03/15 02:51:52;;;;;;;0.80;0.80;;;;;;;;;;4994454;28;20215;-82
2023/03/15 02:54:21;;;;;;;0.80;0.80;;;;;;;;;;4993950;28;20196;-83
2023/03/15 02:56:50;;;;;;;0.80;0.80;;;;;;;;;;4993773;28;20208;-83
2023/03/15 02:59:18;;;;;;;0.80;0.80;;;;;;;;;;4994128;28;20271;-82
2023/03/15 03:01:47;;;;;;;0.80;0.80;;;;;;;;;;4994136;28;20203;-82
2023/03/15 03:04:16;;;;;;;0.80;0.80;;;;;;;;;;4994212;28;20290;-83
2023/03/15 03:06:45;;;;;;;0.80;0.80;;;;;;;;;;4993455;28;20219;-82
2023/03/15 03:09:13;;;;;;;0.70;0.70;;;;;;;;;;4993820;28;20342;-82
2023/03/15 03:11:42;;;;;;;0.77;0.77;;;;;;;;;;4993997;28;20239;-82
2023/03/15 03:14:12;;;;;;;0.80;0.80;;;;;;;;;;4993828;28;20207;-82
2023/03/15 03:16:41;;;;;;;0.80;0.80;;;;;;;;;;4993910;28;20230;-83
2023/03/15 03:19:11;;;;;;;0.80;0.80;;;;;;;;;;4993591;28;20254;-82
2023/03/15 03:21:42;;;;;;;0.80;0.80;;;;;;;;;;4993920;28;20266;-82
2023/03/15 03:24:10;;;;;;;0.80;0.80;;;;;;;;;;4993325;28;20207;-82
2023/03/15 03:26:39;;;;;;;0.80;0.80;;;;;;;;;;4993357;28;20189;-82
2023/03/15 03:29:07;;;;;;;0.80;0.80;;;;;;;;;;4993606;28;20230;-82
2023/03/15 03:31:35;;;;;;;0.80;0.80;;;;;;;;;;4993791;28;20230;-83
2023/03/15 03:34:04;;;;;;;0.83;0.83;;;;;;;;;;4993528;28;20203;-82
2023/03/15 03:36:33;;;;;;;0.80;0.80;;;;;;;;;;4993224;28;20233;-83
2023/03/15 03:39:03;;;;;;;0.80;0.80;;;;;;;;;;4993333;28;20201;-83
2023/03/15 03:41:31;;;;;;;0.80;0.80;;;;;;;;;;4993520;28;20206;-82
2023/03/15 03:44:00;;;;;;;0.80;0.80;;;;;;;;;;4992358;28;20195;-82
2023/03/15 03:46:29;;;;;;;0.80;0.80;;;;;;;;;;4993010;28;20218;-83
2023/03/15 03:48:57;;;;;;;0.80;0.80;;;;;;;;;;4993719;28;20208;-82
2023/03/15 03:51:26;;;;;;;0.80;0.80;;;;;;;;;;4993200;28;20295;-86
2023/03/15 03:53:54;;;;;;;0.80;0.80;;;;;;;;;;4992762;28;20285;-86
2023/03/15 03:56:24;;;;;;;0.80;0.80;;;;;;;;;;4992795;28;20221;-86
2023/03/15 03:58:52;;;;;;;0.80;0.80;;;;;;;;;;4992823;28;20300;-86
2023/03/15 04:01:21;;;;;;;0.70;0.70;;;;;;;;;;4992798;28;20243;-85
2023/03/15 04:03:50;;;;;;;0.70;0.70;;;;;;;;;;4993074;28;20257;-85
2023/03/15 04:06:18;;;;;;;0.80;0.80;;;;;;;;;;4992755;28;20258;-85
2023/03/15 04:08:49;;;;;;;0.70;0.70;;;;;;;;;;4993238;28;20236;-85
2023/03/15 04:11:17;;;;;;;0.73;0.73;;;;;;;;;;4993096;28;20228;-85
2023/03/15 04:13:48;;;;;;;0.80;0.80;;;;;;;;;;4992999;28;20286;-85
2023/03/15 04:16:16;;;;;;;0.80;0.80;;;;;;;;;;4992648;28;20350;-85
2023/03/15 04:18:45;;;;;;;0.80;0.80;;;;;;;;;;4993110;28;20200;-84
2023/03/15 04:21:13;;;;;;;0.80;0.80;;;;;;;;;;4992776;28;20214;-85
2023/03/15 04:23:41;;;;;;;0.80;0.80;;;;;;;;;;4992514;28;20199;-85
2023/03/15 04:26:10;;;;;;;0.80;0.80;;;;;;;;;;4992525;28;20257;-86
2023/03/15 04:28:39;;;;;;;0.80;0.80;;;;;;;;;;4992406;28;20243;-87
2023/03/15 04:31:09;;;;;;;0.80;0.80;;;;;;;;;;4992485;28;20228;-86
2023/03/15 04:33:37;;;;;;;0.80;0.80;;;;;;;;;;4992487;28;20207;-87
2023/03/15 04:36:06;;;;;;;0.80;0.80;;;;;;;;;;4992338;28;20313;-86
2023/03/15 04:38:35;;;;;;;0.80;0.80;;;;;;;;;;4992541;28;20223;-85
2023/03/15 04:41:09;;;;;;;0.80;0.80;;;;;;;;;;4992552;28;20214;-86
2023/03/15 04:43:38;;;;;;;0.80;0.80;;;;;;;;;;4992400;28;20235;-86
2023/03/15 04:46:06;;;;;;;0.80;0.80;;;;;;;;;;4992553;28;20232;-86
2023/03/15 04:48:36;;;;;;;0.80;0.80;;;;;;;;;;4992370;28;20200;-82
2023/03/15 04:51:04;;;;;;;0.80;0.80;;;;;;;;;;4992623;28;20214;-82
2023/03/15 04:53:33;;;;;;;0.80;0.80;;;;;;;;;;4992264;28;20216;-82
2023/03/15 04:56:01;;;;;;;0.80;0.80;;;;;;;;;;4995833;28;20275;-82
2023/03/15 04:58:32;;;;;;;0.80;0.80;;;;;;;;;;4996373;28;20203;-82
2023/03/15 05:01:00;;;;;;;0.80;0.80;;;;;;;;;;4996386;28;20266;-82
2023/03/15 05:03:29;;;;;;;0.80;0.80;;;;;;;;;;4995708;28;20208;-82
2023/03/15 05:05:58;;;;;;;0.80;0.80;;;;;;;;;;4996126;28;20311;-82
2023/03/15 05:08:27;;;;;;;0.80;0.80;;;;;;;;;;4995906;28;20245;-82
2023/03/15 05:10:55;;;;;;;0.70;0.70;;;;;;;;;;4995874;28;20302;-82
2023/03/15 05:13:23;;;;;;;0.70;0.70;;;;;;;;;;4996369;28;20294;-82
2023/03/15 05:15:52;;;;;;;0.80;0.80;;;;;;;;;;4996089;28;20233;-82
2023/03/15 05:18:20;;;;;;;0.80;0.80;;;;;;;;;;4995688;28;20223;-82
2023/03/15 05:20:49;;;;;;;0.80;0.80;;;;;;;;;;4995732;28;20201;-82
2023/03/15 05:23:18;;;;;;;0.80;0.80;;;;;;;;;;4995831;28;20227;-82
2023/03/15 05:25:52;;;;;;;0.80;0.80;;;;;;;;;;4996020;28;20289;-82
2023/03/15 05:28:21;;;;;;;0.80;0.80;;;;;;;;;;4995820;28;20298;-82
2023/03/15 05:30:50;;;;;;;0.80;0.80;;;;;;;;;;4995605;28;20257;-82
2023/03/15 05:33:19;;;;;;;0.80;0.80;;;;;;;;;;4995528;28;20265;-82
2023/03/15 05:35:47;;;;;;;0.80;0.80;;;;;;;;;;4995918;28;20264;-82
2023/03/15 05:38:15;;;;;;;0.80;0.80;;;;;;;;;;4995503;28;20218;-82
2023/03/15 05:40:46;;;;;;;0.80;0.80;;;;;;;;;;4995301;28;20295;-82
2023/03/15 05:43:14;;;;;;;0.80;0.80;;;;;;;;;;4995416;28;20271;-82
2023/03/15 05:45:46;;;;;;;0.80;0.80;;;;;;;;;;4995275;28;20245;-82
2023/03/15 05:48:15;;;;;;;0.80;0.80;;;;;;;;;;4995599;28;20239;-82
2023/03/15 05:50:43;;;;;;;0.80;0.80;;;;;;;;;;4995726;28;20486;-82
2023/03/15 05:53:12;;;;;;;0.90;0.90;;;;;;;;;;4994811;28;20242;-81
2023/03/15 05:55:40;;;;;;;0.90;0.90;;;;;;;;;;4995249;28;20230;-81
2023/03/15 05:58:10;;;;;;;0.80;0.80;;;;;;;;;;4995234;28;20219;-81
2023/03/15 06:00:38;;;;;;;0.80;0.80;;;;;;;;;;4995148;28;20203;-81
2023/03/15 06:03:06;;;;;;;0.80;0.80;;;;;;;;;;4994989;28;20207;-81
2023/03/15 06:05:35;;;;;;;0.80;0.80;;;;;;;;;;4994208;28;20222;-81
2023/03/15 06:08:04;;;;;;;0.87;0.87;;;;;;;;;;4995095;28;20206;-81
2023/03/15 06:10:32;;;;;;;0.83;0.83;;;;;;;;;;4995118;28;20199;-81
2023/03/15 06:13:01;;;;;;;0.80;0.80;;;;;;;;;;4994712;28;20203;-81
2023/03/15 06:15:32;;;;;;;0.80;0.80;;;;;;;;;;4994806;28;20236;-81
2023/03/15 06:18:00;;;;;;;0.80;0.80;;;;;;;;;;4994644;28;20248;-81
2023/03/15 06:20:28;;;;;;;0.80;0.80;;;;;;;;;;4994987;28;20204;-81
2023/03/15 06:22:57;;;;;;;0.80;0.80;;;;;;;;;;4994704;28;20209;-81
2023/03/15 06:25:25;;;;;;;0.80;0.80;;;;;;;;;;4995088;28;20332;-82
2023/03/15 06:27:53;;;;;;;0.80;0.80;;;;;;;;;;4994799;28;20343;-82
2023/03/15 06:30:22;;;;;;;0.80;0.80;;;;;;;;;;4994407;28;20222;-81
2023/03/15 06:32:52;;;;;;;0.80;0.80;;;;;;;;;;4994727;28;20233;-81
2023/03/15 06:35:21;;;;;;;0.80;0.80;;;;;;;;;;4994028;28;20209;-81
2023/03/15 06:37:51;;;;;;;0.80;0.80;;;;;;;;;;4994432;28;20229;-81
2023/03/15 06:40:20;;;;;;;0.80;0.80;;;;;;;;;;4994153;28;20214;-81
2023/03/15 06:42:48;;;;;;;0.80;0.80;;;;;;;;;;4994151;28;20207;-82
2023/03/15 06:45:17;;;;;;;0.80;0.80;;;;;;;;;;4994307;28;20210;-81
2023/03/15 06:47:45;;;;;;;0.80;0.80;;;;;;;;;;4994408;28;20274;-81
2023/03/15 06:50:15;;;;;;;0.80;0.80;;;;;;;;;;4994175;28;20196;-81
2023/03/15 06:52:43;;;;;;;0.80;0.80;;;;;;;;;;4994443;28;20226;-81
2023/03/15 06:55:16;;;;;;;0.80;0.80;;;;;;;;;;4994021;28;20278;-81
2023/03/15 06:57:45;;;;;;;0.80;0.80;;;;;;;;;;4994057;28;20606;-81
2023/03/15 07:00:16;;;;;;;0.80;0.80;;;;;;;;;;4993686;28;20298;-81
2023/03/15 07:02:44;;;;;;;0.80;0.80;;;;;;;;;;4993907;28;20204;-81
2023/03/15 07:05:12;;;;;;;0.80;0.80;;;;;;;;;;4994157;28;20258;-81
2023/03/15 07:07:42;;;;;;;0.80;0.80;;;;;;;;;;4993708;28;20204;-81
2023/03/15 07:10:11;;;;;;;0.90;0.90;;;;;;;;;;4993235;28;20314;-81
2023/03/15 07:12:40;;;;;;;0.80;0.80;;;;;;;;;;4994379;28;20239;-81
2023/03/15 07:15:08;;;;;;;0.90;0.90;;;;;;;;;;4993468;28;20307;-81
2023/03/15 07:17:37;;;;;;;0.83;0.83;;;;;;;;;;4993192;28;20228;-81
2023/03/15 07:20:06;;;;;;;0.80;0.80;;;;;;;;;;4993254;28;20249;-81
2023/03/15 07:22:34;;;;;;;0.80;0.80;;;;;;;;;;4993333;28;20200;-81
2023/03/15 07:25:06;;;;;;;0.80;0.80;;;;;;;;;;4993100;28;20208;-81
2023/03/15 07:27:37;;;;;;;0.80;0.80;;;;;;;;;;4993280;28;20208;-81
2023/03/15 07:30:08;;;;;;;0.90;0.90;;;;;;;;;;4992999;28;20207;-81
2023/03/15 07:32:37;;;;;;;0.80;0.80;;;;;;;;;;4993117;28;20212;-81
2023/03/15 07:35:07;;;;;;;0.80;0.80;;;;;;;;;;4992814;28;20205;-81
2023/03/15 07:37:35;;;;;;;0.87;0.87;;;;;;;;;;4993090;28;20205;-81
2023/03/15 07:40:09;;;;;;;0.80;0.80;;;;;;;;;;4992868;28;20232;-81
2023/03/15 07:42:37;;;;;;;0.80;0.80;;;;;;;;;;4993275;28;20247;-81
2023/03/15 07:45:07;;;;;;;0.80;0.80;;;;;;;;;;4993227;28;20261;-81
2023/03/15 07:47:35;;;;;;;0.83;0.83;;;;;;;;;;4993346;28;20273;-81
2023/03/15 07:50:04;;;;;;;0.80;0.80;;;;;;;;;;4993035;28;20204;-82
2023/03/15 07:52:32;;;;;;;0.80;0.80;;;;;;;;;;4992591;28;20232;-82
2023/03/15 07:55:01;;;;;;;0.80;0.80;;;;;;;;;;4993002;28;20207;-82
2023/03/15 07:57:31;;;;;;;0.80;0.80;;;;;;;;;;4993034;28;20295;-83
2023/03/15 08:00:02;;;;;;;0.80;0.80;;;;;;;;;;4992822;28;20200;-83
2023/03/15 08:02:31;;;;;;;0.80;0.80;;;;;;;;;;4993331;28;20266;-83
2023/03/15 08:04:59;;;;;;;0.80;0.80;;;;;;;;;;4992533;28;20235;-83
2023/03/15 08:07:28;;;;;;;0.80;0.80;;;;;;;;;;4992987;28;20255;-83
2023/03/15 08:09:57;;;;;;;0.80;0.80;;;;;;;;;;4992680;28;20267;-83
2023/03/15 08:12:26;;;;;;;0.80;0.80;;;;;;;;;;4992875;28;20232;-83
2023/03/15 08:14:55;;;;;;;0.80;0.80;;;;;;;;;;4993011;28;20226;-83
2023/03/15 08:17:28;;;;;;;0.80;0.80;;;;;;;;;;4989548;28;20212;-85
2023/03/15 08:19:56;;;;;;;0.80;0.80;;;;;;;;;;4990513;28;20235;-85
2023/03/15 08:22:25;;;;;;;0.80;0.80;;;;;;;;;;4985758;28;20204;-84
2023/03/15 08:24:53;;;;;;;0.80;0.80;;;;;;;;;;4991362;28;20200;-85
2023/03/15 08:27:22;;;;;;;0.80;0.80;;;;;;;;;;4998003;28;20208;-87
2023/03/15 08:29:51;;;;;;;0.80;0.80;;;;;;;;;;4990984;28;20258;-86
2023/03/15 08:32:22;;;;;;;0.80;0.80;;;;;;;;;;4994740;28;20308;-86
2023/03/15 08:34:51;;;;;;;0.80;0.80;;;;;;;;;;4997456;28;20206;-85
2023/03/15 08:37:20;;;;;;;0.80;0.80;;;;;;;;;;4991450;28;20205;-85
2023/03/15 08:39:56;;;;;;;0.70;0.70;;;;;;;;;;4988532;28;20247;-86
2023/03/15 08:42:25;;;;;;;0.70;0.70;;;;;;;;;;4991687;28;20207;-86
2023/03/15 08:44:58;;;;;;;0.80;0.80;;;;;;;;;;4996838;28;20203;-85
2023/03/15 08:47:28;;;;;;;0.80;0.80;;;;;;;;;;4986282;28;20216;-86
2023/03/15 08:49:56;;;;;;;0.80;0.80;;;;;;;;;;4991644;28;20212;-86
2023/03/15 08:52:25;;;;;;;0.80;0.80;;;;;;;;;;4990104;28;20207;-85
2023/03/15 08:54:53;;;;;;;0.70;0.70;;;;;;;;;;5002392;28;20251;-85
2023/03/15 08:57:24;;;;;;;0.80;0.80;;;;;;;;;;5000396;28;20199;-86
2023/03/15 08:59:53;;;;;;;0.70;0.70;;;;;;;;;;4985579;28;20235;-86
2023/03/15 09:02:22;;;;;;;0.80;0.80;;;;;;;;;;4996240;28;20270;-85
2023/03/15 09:04:52;;;;;;;0.80;0.80;;;;;;;;;;4993996;28;20213;-86
2023/03/15 09:07:21;;;;;;;0.80;0.80;;;;;;;;;;4994994;28;20295;-85
2023/03/15 09:09:53;;;;;;;0.80;0.80;;;;;;;;;;4985165;28;20240;-86
2023/03/15 09:12:22;;;;;;;0.70;0.70;;;;;;;;;;4978993;28;20201;-86
2023/03/15 09:14:50;;;;;;;0.70;0.70;;;;;;;;;;4979362;28;20271;-87
2023/03/15 09:17:18;;;;;;;0.80;0.80;;;;;;;;;;4989260;28;20212;-86
2023/03/15 09:19:47;;;;;;;0.80;0.80;;;;;;;;;;5004770;28;20222;-86
2023/03/15 09:22:17;;;;;;;0.80;0.80;;;;;;;;;;4985810;28;20212;-87
2023/03/15 09:25:05;;;;;;;0.77;0.77;;;;;;;;;;4989871;28;20212;-87
2023/03/15 09:27:34;;;;;;;0.73;0.73;;;;;;;;;;4989419;28;20212;-82
2023/03/15 09:30:03;;;;;;;0.70;0.70;;;;;;;;;;4983919;28;20251;-82
2023/03/15 09:32:34;;;;;;;0.80;0.80;;;;;;;;;;4996462;28;20274;-83
2023/03/15 09:35:04;;;;;;;0.70;0.70;;;;;;;;;;4988801;28;20212;-83
2023/03/15 09:37:35;;;;;;;0.80;0.80;;;;;;;;;;4988158;28;20216;-83
2023/03/15 09:40:06;;;;;;;0.80;0.80;;;;;;;;;;4986744;28;20244;-83
2023/03/15 09:42:39;;;;;;;0.80;0.80;;;;;;;;;;4994466;28;20220;-83
2023/03/15 09:45:13;;;;;;;0.80;0.80;;;;;;;;;;4987726;28;20260;-84
2023/03/15 09:47:45;;;;;;;0.70;0.70;;;;;;;;;;4989572;28;20196;-82
2023/03/15 09:50:18;;;;;;;0.80;0.80;;;;;;;;;;4989069;28;20216;-83
2023/03/15 09:52:50;;;;;;;0.70;0.70;;;;;;;;;;4991897;28;20316;-82
2023/03/15 09:55:21;;;;;;;0.73;0.73;;;;;;;;;;4988998;28;20216;-81
2023/03/15 09:57:52;;;;;;;0.70;0.70;;;;;;;;;;4991554;28;20224;-82
2023/03/15 10:00:27;;;;;;;0.77;0.77;;;;;;;;;;4991161;28;20221;-82
2023/03/15 10:03:00;;;;;;;0.70;0.70;;;;;;;;;;4996878;28;20211;-81
2023/03/15 10:05:38;;;;;;;0.70;0.70;;;;;;;;;;4994763;28;20315;-82
2023/03/15 10:08:12;;;;;;;0.80;0.80;;;;;;;;;;4994068;28;20204;-82
2023/03/15 10:10:45;;;;;;;0.80;0.80;;;;;;;;;;4994722;28;20200;-83
2023/03/15 10:13:22;;;;;;;0.73;0.73;;;;;;;;;;4992395;28;20250;-84
2023/03/15 10:15:59;;;;;;;0.70;0.70;;;;;;;;;;4979470;28;20212;-83
2023/03/15 10:18:35;;;;;;;0.70;0.70;;;;;;;;;;4989284;28;20291;-83
2023/03/15 10:21:06;;;;;;;0.80;0.80;;;;;;;;;;4993474;28;20310;-83
2023/03/15 10:23:40;;;;;;;0.77;0.77;;;;;;;;;;4987943;28;20204;-83
2023/03/15 10:26:12;;;;;;;0.80;0.80;;;;;;;;;;4994053;28;20207;-83
2023/03/15 10:28:41;;;;;;;0.80;0.80;;;;;;;;;;4983782;28;20216;-83
2023/03/15 10:31:13;;;;;;;0.80;0.80;;;;;;;;;;4986723;28;20239;-83
2023/03/15 10:33:57;;;;;;;0.80;0.80;;;;;;;;;;4992423;28;20208;-83
2023/03/15 10:36:26;;;;;;;0.80;0.80;;;;;;;;;;4994568;28;20299;-82
2023/03/15 10:38:58;;;;;;;0.70;0.70;;;;;;;;;;4979322;28;20205;-82
2023/03/15 10:41:29;;;;;;;0.70;0.70;;;;;;;;;;4991539;28;20224;-83
2023/03/15 10:44:14;;;;;;;0.80;0.80;;;;;;;;;;4994459;28;20239;-83
2023/03/15 10:46:43;;;;;;;0.80;0.80;;;;;;;;;;4977558;28;20204;-82
2023/03/15 10:49:13;;;;;;;0.70;0.70;;;;;;;;;;4987613;28;20205;-81
2023/03/15 10:51:43;;;;;;;0.80;0.80;;;;;;;;;;4984453;28;20212;-81
2023/03/15 10:54:15;;;;;;;0.70;0.70;;;;;;;;;;4991244;28;20303;-81
2023/03/15 10:56:46;;;;;;;0.80;0.80;;;;;;;;;;4992459;28;20291;-81
2023/03/15 10:59:18;;;;;;;0.70;0.70;;;;;;;;;;4993677;28;20264;-85
2023/03/15 11:01:51;;;;;;;0.70;0.70;;;;;;;;;;4993490;28;20196;-86
2023/03/15 11:04:21;;;;;;;0.70;0.70;;;;;;;;;;4984473;28;20266;-86
2023/03/15 11:06:51;;;;;;;0.67;0.67;;;;;;;;;;4988586;28;20263;-85
2023/03/15 11:09:22;;;;;;;0.70;0.70;;;;;;;;;;4991643;28;20375;-86
2023/03/15 11:12:08;;;;;;;0.70;0.70;;;;;;;;;;4991443;28;20486;-82
2023/03/15 11:14:39;;;;;;;0.70;0.70;;;;;;;;;;4994149;28;20208;-81
2023/03/15 11:17:08;;;;;;;0.70;0.70;;;;;;;;;;4993283;28;20204;-81
2023/03/15 11:19:40;;;;;;;0.70;0.70;;;;;;;;;;5013058;28;20191;-81
2023/03/15 11:22:12;;;;;;;0.60;0.60;;;;;;;;;;4995744;28;20267;-81
2023/03/15 11:24:42;;;;;;;0.70;0.70;;;;;;;;;;4996778;28;20534;-81
2023/03/15 11:27:12;;;;;;;0.63;0.63;;;;;;;;;;4995197;28;20213;-81
2023/03/15 11:29:42;;;;;;;0.70;0.70;;;;;;;;;;4992757;28;20280;-81
2023/03/15 11:32:13;;;;;;;0.70;0.70;;;;;;;;;;4991222;28;20201;-81
2023/03/15 11:34:45;;;;;;;0.70;0.70;;;;;;;;;;4982442;28;20202;-83
2023/03/15 11:37:16;;;;;;;0.70;0.70;;;;;;;;;;4992021;28;20211;-83
2023/03/15 11:40:10;;;;;;;0.70;0.70;;;;;;;;;;4993971;28;20219;-84
2023/03/15 11:42:47;;;;;;;0.70;0.70;;;;;;;;;;4993102;28;20208;-84
2023/03/15 11:45:21;;;;;;;0.70;0.70;;;;;;;;;;4993587;28;20419;-84
2023/03/15 11:47:52;;;;;;;0.70;0.70;;;;;;;;;;4993521;28;20209;-84
2023/03/15 11:50:20;;;;;;;0.70;0.70;;;;;;;;;;4993586;28;20201;-84
2023/03/15 11:52:50;;;;;;;0.70;0.70;;;;;;;;;;4993562;28;20212;-84
2023/03/15 11:55:20;;;;;;;0.70;0.70;;;;;;;;;;4993855;28;20232;-84
2023/03/15 11:57:51;;;;;;;0.70;0.70;;;;;;;;;;4993214;28;20241;-84
2023/03/15 12:00:46;;;;;;;0.70;0.70;;;;;;;;;;4993445;28;20225;-84
2023/03/15 12:03:27;;;;;;;0.70;0.70;;;;;;;;;;4992042;28;20236;-84
2023/03/15 12:06:00;;;;;;;0.80;0.80;;;;;;;;;;4992949;28;20225;-84
2023/03/15 12:08:41;;;;;;;0.70;0.70;;;;;;;;;;4992957;28;20235;-84
2023/03/15 12:11:12;;;;;;;0.70;0.70;;;;;;;;;;4992619;28;20236;-84
2023/03/15 12:13:53;;;;;;;0.70;0.70;;;;;;;;;;4992964;28;20239;-84
2023/03/15 12:16:22;;;;;;;1.03;1.03;;;;;;;;;;4993321;28;20229;-84
2023/03/15 12:18:51;;;;;;;0.70;0.70;;;;;;;;;;4992831;28;20496;-84
2023/03/15 12:21:21;;;;;;;0.80;0.80;;;;;;;;;;4993141;28;20249;-84
2023/03/15 12:23:57;;;;;;;0.70;0.70;;;;;;;;;;4993104;28;20218;-84
2023/03/15 12:26:32;;;;;;;0.70;0.70;;;;;;;;;;4993038;28;20201;-84
2023/03/15 12:29:06;;;;;;;0.70;0.70;;;;;;;;;;4993023;28;20214;-84
2023/03/15 12:31:45;;;;;;;0.70;0.70;;;;;;;;;;4993461;28;20197;-84
2023/03/15 12:34:15;;;;;;;0.70;0.70;;;;;;;;;;4992769;28;20232;-84
2023/03/15 12:36:47;;;;;;;0.80;0.80;;;;;;;;;;4992939;28;20217;-84
2023/03/15 12:39:23;;;;;;;0.70;0.70;;;;;;;;;;4993255;28;20260;-84
2023/03/15 12:41:52;;;;;;;0.70;0.70;;;;;;;;;;4993320;28;20220;-84
2023/03/15 12:44:38;;;;;;;0.80;0.80;;;;;;;;;;4993238;28;20276;-84
2023/03/15 12:47:07;;;;;;;0.80;0.80;;;;;;;;;;4992691;28;20200;-84
2023/03/15 12:49:39;;;;;;;0.70;0.70;;;;;;;;;;4992823;28;20210;-84
2023/03/15 12:52:26;;;;;;;0.80;0.80;;;;;;;;;;4992862;28;20202;-84
2023/03/15 12:54:55;;;;;;;0.70;0.70;;;;;;;;;;4992796;28;20296;-84
2023/03/15 12:57:26;;;;;;;0.70;0.70;;;;;;;;;;4992797;28;20210;-84
2023/03/15 12:59:59;;;;;;;0.70;0.70;;;;;;;;;;4993366;28;20202;-84
2023/03/15 13:02:32;;;;;;;0.70;0.70;;;;;;;;;;4992446;28;20222;-84
2023/03/15 13:05:23;;;;;;;0.70;0.70;;;;;;;;;;4992626;28;20236;-84
2023/03/15 13:07:55;;;;;;;0.80;0.80;;;;;;;;;;4992523;28;20275;-84
2023/03/15 13:10:31;;;;;;;0.80;0.80;;;;;;;;;;4992540;28;20238;-84
2023/03/15 13:13:02;;;;;;;0.70;0.70;;;;;;;;;;4992942;28;20273;-84
2023/03/15 13:15:34;;;;;;;0.70;0.70;;;;;;;;;;4993513;28;20252;-84
2023/03/15 13:18:05;;;;;;;0.70;0.70;;;;;;;;;;4996269;28;20241;-84
2023/03/15 13:20:41;;;;;;;0.80;0.80;;;;;;;;;;4996557;28;20271;-84
2023/03/15 13:23:15;;;;;;;0.70;0.70;;;;;;;;;;4996191;28;20210;-84
2023/03/15 13:25:48;;;;;;;0.77;0.77;;;;;;;;;;4996303;28;20199;-84
2023/03/15 13:28:21;;;;;;;0.70;0.70;;;;;;;;;;4996206;28;20230;-84
2023/03/15 13:30:52;;;;;;;1.00;1.00;;;;;;;;;;4995751;28;20216;-85
2023/03/15 13:33:22;;;;;;;1.30;1.20;;;;;;;;;;4995922;28;20213;-85
2023/03/15 13:35:56;;;;;;;1.43;1.13;;;;;;;;;;4995807;28;20203;-85
2023/03/15 13:38:31;;;;;;;2.20;1.43;;;;;;;;;;4995665;28;20252;-85
2023/03/15 13:41:02;;;;;;;2.00;1.33;;;;;;;;;;4995678;28;20317;-85
2023/03/15 13:43:32;;;;;;;2.17;1.50;;;;;;;;;;4995473;28;20213;-85
2023/03/15 13:46:02;;;;;;;1.17;0.90;;;;;;;;;;4995497;28;20198;-85
2023/03/15 13:48:31;;;;;;;1.60;1.20;;;;;;;;;;4995217;28;20269;-85
2023/03/15 13:51:03;;;;;;;2.83;1.47;;;;;;;;;;4995594;28;20202;-85
2023/03/15 13:53:33;;;;;;;1.47;1.43;;;;;;;;;;4995278;28;20192;-85
2023/03/15 13:56:17;;;;;;;1.47;1.37;;;;;;;;;;4995848;28;20202;-84
2023/03/15 13:58:46;;;;;;;1.67;0.97;;;;;;;;;;4995424;28;20198;-84
2023/03/15 14:01:18;;;;;;;1.23;1.13;;;;;;;;;;4995515;28;20526;-84
2023/03/15 14:03:49;;;;;;;1.43;1.33;;;;;;;;;;4995719;28;20211;-83
2023/03/15 14:06:21;;;;;;;4.03;2.33;;;;;;;;;;4995194;28;20325;-84
2023/03/15 14:08:53;;;;;;;3.80;1.07;;;;;;;;;;4995340;28;20227;-84
2023/03/15 14:11:33;;;;;;;2.17;2.07;;;;;;;;;;4995353;28;20238;-84
2023/03/15 14:14:04;;;;;;;2.60;1.50;;;;;;;;;;4995097;28;20477;-84
2023/03/15 14:16:40;;;;;;;3.07;1.13;;;;;;;;;;4995547;28;20210;-84
2023/03/15 14:19:30;;;;;;;2.17;1.57;;;;;;;;;;4994450;28;20224;-85
2023/03/15 14:21:59;;;;;;;1.43;1.40;;;;;;;;;;4995564;28;20218;-84
2023/03/15 14:24:32;;;;;;;1.17;1.17;;;;;;;;;;4994749;28;20257;-84
2023/03/15 14:27:01;;;;;;;2.63;1.30;;;;;;;;;;4994174;28;20277;-84
2023/03/15 14:29:30;;;;;;;8.43;1.73;;;;;;;;;;4995189;28;20200;-84
2023/03/15 14:32:04;;;;;;;1.53;1.50;;;;;;;;;;4994723;28;20213;-84
2023/03/15 14:34:33;;;;;;;1.17;1.07;;;;;;;;;;4994987;28;20202;-84
2023/03/15 14:37:04;;;;;;;2.00;1.90;;;;;;;;;;4994969;28;20245;-84
2023/03/15 14:39:38;;;;;;;3.37;1.43;;;;;;;;;;4994432;28;20246;-84
2023/03/15 14:42:07;;;;;;;1.07;0.97;;;;;;;;;;4994421;28;20275;-84
2023/03/15 14:44:35;;;;;;;1.73;1.67;;;;;;;;;;4994238;28;20222;-83
2023/03/15 14:47:12;;;;;;;1.33;1.20;;;;;;;;;;4994550;28;20234;-84
2023/03/15 14:49:40;;;;;;;14.13;1.43;;;;;;;;;;4994772;28;20297;-83
2023/03/15 14:52:13;;;;;;;2.27;1.23;;;;;;;;;;4994591;28;20207;-83
2023/03/15 14:54:44;;;;;;;1.37;1.33;;;;;;;;;;4994391;28;20207;-84
2023/03/15 14:57:13;;;;;;;2.87;1.40;;;;;;;;;;4994575;28;20241;-84
2023/03/15 14:59:41;;;;;;;3.90;1.20;;;;;;;;;;4994263;28;20248;-84
2023/03/15 15:02:20;;;;;;;0.70;0.70;;;;;;;;;;4994336;28;20229;-84
2023/03/15 15:04:48;;;;;;;4.53;1.10;;;;;;;;;;4994058;28;20234;-85